Time;durP1;ratioP1;P1;durP2;ratioP2;P2;SDS_P1;SDS_P2;PMS_P1;PMS_P2;Temp;Humidity;BMP_temperature;BMP_pressure;BME280_temperature;BME280_humidity;BME280_pressure;Samples;Min_cycle;Max_cycle;Signal;HPM_P1;HPM_P2
2022/08/11 00:00:07;;;;;;;11.90;10.73;;;16.80;99.90;;;;;;5027990;28;21314;-61
2022/08/11 00:02:49;;;;;;;11.10;10.20;;;16.80;99.90;;;;;;5029210;28;20472;-61
2022/08/11 00:05:18;;;;;;;11.60;10.80;;;16.80;99.90;;;;;;5029335;28;20492;-60
2022/08/11 00:07:49;;;;;;;11.93;11.13;;;16.70;99.90;;;;;;5027727;28;21207;-60
2022/08/11 00:10:19;;;;;;;10.53;9.83;;;16.70;99.90;;;;;;5030027;28;20471;-60
2022/08/11 00:12:51;;;;;;;11.67;10.77;;;16.60;99.90;;;;;;5030892;28;20424;-57
2022/08/11 00:15:17;;;;;;;11.90;11.00;;;16.60;99.90;;;;;;5021205;28;20474;-60
2022/08/11 00:17:43;;;;;;;11.27;10.33;;;16.50;99.90;;;;;;5028539;28;20482;-60
2022/08/11 00:20:13;;;;;;;11.10;10.30;;;16.50;99.90;;;;;;5027936;28;20842;-59
2022/08/11 00:22:41;;;;;;;10.93;10.23;;;16.50;99.90;;;;;;5029385;28;20467;-61
2022/08/11 00:25:17;;;;;;;11.20;10.50;;;16.50;99.90;;;;;;5031172;28;20450;-60
2022/08/11 00:27:43;;;;;;;11.23;10.43;;;16.40;99.90;;;;;;5030079;28;20498;-61
2022/08/11 00:30:11;;;;;;;11.57;10.70;;;16.40;99.90;;;;;;5030191;28;20467;-61
2022/08/11 00:32:39;;;;;;;11.37;10.40;;;16.40;99.90;;;;;;5029788;28;20481;-61
2022/08/11 00:35:10;;;;;;;11.30;10.40;;;16.30;99.90;;;;;;5030744;28;20817;-60
2022/08/11 00:37:37;;;;;;;11.30;10.40;;;16.30;99.90;;;;;;5027097;28;20483;-57
2022/08/11 00:40:07;;;;;;;11.13;10.10;;;16.30;99.90;;;;;;5030703;28;20428;-60
2022/08/11 00:43:03;;;;;;;11.77;10.90;;;16.20;99.90;;;;;;5029233;28;20477;-60
2022/08/11 00:45:41;;;;;;;11.60;10.70;;;16.20;99.90;;;;;;5029577;28;20428;-60
2022/08/11 00:48:27;;;;;;;10.93;10.23;;;16.10;99.90;;;;;;5028903;28;20509;-60
2022/08/11 00:51:25;;;;;;;11.40;10.50;;;16.10;99.90;;;;;;5030272;28;20476;-60
2022/08/11 00:54:15;;;;;;;12.00;11.13;;;16.00;99.90;;;;;;5025871;28;20452;-59
2022/08/11 00:57:01;;;;;;;11.23;10.43;;;16.00;99.90;;;;;;5030260;28;20509;-60
2022/08/11 00:59:59;;;;;;;11.33;10.30;;;16.00;99.90;;;;;;5024872;28;20471;-60
2022/08/11 01:02:45;;;;;;;11.27;10.30;;;16.00;99.90;;;;;;5028762;28;20581;-60
2022/08/11 01:05:39;;;;;;;10.97;10.17;;;15.90;99.90;;;;;;5026499;28;20446;-60
2022/08/11 01:08:23;;;;;;;11.50;10.57;;;15.80;99.90;;;;;;5029613;28;20900;-60
2022/08/11 01:11:36;;;;;;;11.40;10.60;;;15.80;99.90;;;;;;5029083;28;20970;-61
2022/08/11 01:14:23;;;;;;;11.57;10.67;;;15.80;99.90;;;;;;5026627;28;20440;-60
2022/08/11 01:17:02;;;;;;;11.70;10.80;;;15.70;99.90;;;;;;5028359;28;20525;-60
2022/08/11 01:19:40;;;;;;;11.30;10.50;;;15.70;99.90;;;;;;5028234;28;20433;-59
2022/08/11 01:22:36;;;;;;;11.67;10.63;;;15.70;99.90;;;;;;5043586;28;20450;-60
2022/08/11 01:25:36;;;;;;;11.97;11.07;;;15.60;99.90;;;;;;5026918;28;20468;-59
2022/08/11 01:28:54;;;;;;;12.00;11.10;;;15.60;99.90;;;;;;5023461;28;20458;-60
2022/08/11 01:31:48;;;;;;;11.73;10.93;;;15.60;99.90;;;;;;5029628;28;20462;-59
2022/08/11 01:34:26;;;;;;;11.97;11.17;;;15.50;99.90;;;;;;5025991;28;20596;-60
2022/08/11 01:37:20;;;;;;;12.80;11.70;;;15.50;99.90;;;;;;5028204;28;20439;-60
2022/08/11 01:40:10;;;;;;;11.70;10.80;;;15.40;99.90;;;;;;5032620;28;20920;-60
2022/08/11 01:46:13;;;;;;;10.90;10.10;;;15.40;99.90;;;;;;5028038;28;20503;-60
2022/08/11 01:48:43;;;;;;;12.00;11.00;;;15.30;99.90;;;;;;5028008;28;20495;-60
2022/08/11 01:51:47;;;;;;;11.07;10.27;;;15.30;99.90;;;;;;5027449;28;20625;-60
2022/08/11 01:54:31;;;;;;;11.77;10.97;;;15.20;99.90;;;;;;5027508;28;20521;-61
2022/08/11 01:57:05;;;;;;;11.37;10.57;;;15.30;99.90;;;;;;5027825;28;20445;-61
2022/08/11 01:59:48;;;;;;;12.73;11.23;;;15.30;99.90;;;;;;5028598;28;20437;-60
2022/08/11 02:02:48;;;;;;;11.40;10.60;;;15.30;99.90;;;;;;5027470;28;20511;-60
2022/08/11 02:05:18;;;;;;;11.77;10.77;;;15.30;99.90;;;;;;5026607;28;20870;-58
2022/08/11 02:08:10;;;;;;;12.13;11.23;;;15.20;99.90;;;;;;5025729;28;20445;-60
2022/08/11 02:14:00;;;;;;;12.47;11.43;;;15.20;99.90;;;;;;4997529;28;20472;-60
2022/08/11 02:16:40;;;;;;;12.10;11.00;;;15.20;99.90;;;;;;5028569;28;20441;-60
2022/08/11 02:25:34;;;;;;;11.90;11.07;;;15.10;99.90;;;;;;5033041;28;20444;-60
2022/08/11 02:28:22;;;;;;;11.97;11.00;;;15.10;99.90;;;;;;5029234;28;20854;-61
2022/08/11 02:34:20;;;;;;;11.77;10.77;;;15.00;99.90;;;;;;5029285;28;21007;-61
2022/08/11 02:37:16;;;;;;;11.63;10.73;;;15.00;99.90;;;;;;5031746;28;20479;-61
2022/08/11 02:39:58;;;;;;;12.27;11.27;;;15.00;99.90;;;;;;5020082;28;20440;-61
2022/08/11 02:42:44;;;;;;;11.70;10.90;;;14.90;99.90;;;;;;5031543;28;20868;-61
2022/08/11 02:45:28;;;;;;;11.60;10.80;;;14.90;99.90;;;;;;5032404;28;20548;-60
2022/08/11 02:51:07;;;;;;;12.00;11.00;;;14.80;99.90;;;;;;5031339;28;20503;-60
2022/08/11 02:53:53;;;;;;;11.90;11.00;;;14.80;99.90;;;;;;5031787;28;20859;-61
2022/08/11 02:56:30;;;;;;;11.40;10.50;;;14.70;99.90;;;;;;5028662;28;20429;-61
2022/08/11 03:02:33;;;;;;;11.30;10.30;;;14.70;99.90;;;;;;5022608;28;20465;-59
2022/08/11 03:05:12;;;;;;;12.70;11.80;;;14.70;99.90;;;;;;5020623;28;20433;-60
2022/08/11 03:07:57;;;;;;;12.47;11.57;;;14.70;99.90;;;;;;5030810;28;21186;-59
2022/08/11 03:17:20;;;;;;;12.50;11.37;;;14.50;99.90;;;;;;5012313;28;20488;-61
2022/08/11 03:20:07;;;;;;;12.20;11.03;;;14.50;99.90;;;;;;5022190;28;20935;-61
2022/08/11 03:22:51;;;;;;;12.10;11.13;;;14.40;99.90;;;;;;5030436;28;20468;-61
2022/08/11 03:25:53;;;;;;;11.80;10.90;;;14.40;99.90;;;;;;5028152;28;20453;-60
2022/08/11 03:29:00;;;;;;;12.40;11.33;;;14.40;99.90;;;;;;5009365;28;20782;-60
2022/08/11 03:31:33;;;;;;;11.80;10.77;;;14.40;99.90;;;;;;5024062;28;20483;-60
2022/08/11 03:34:29;;;;;;;12.10;11.20;;;14.40;99.90;;;;;;5029747;28;20461;-61
2022/08/11 03:43:46;;;;;;;11.03;10.23;;;14.30;99.90;;;;;;5030826;28;20529;-61
2022/08/11 03:46:44;;;;;;;11.83;10.87;;;14.30;99.90;;;;;;5019945;28;20528;-61
2022/08/11 03:49:38;;;;;;;12.07;11.17;;;14.30;99.90;;;;;;5020200;28;20491;-60
2022/08/11 03:52:28;;;;;;;12.23;11.33;;;14.30;99.90;;;;;;5028500;28;20508;-60
2022/08/11 03:55:38;;;;;;;13.00;11.70;;;14.20;99.90;;;;;;5022592;28;20441;-58
2022/08/11 03:58:33;;;;;;;12.67;11.50;;;14.20;99.90;;;;;;5024723;28;20796;-60
2022/08/11 04:01:31;;;;;;;12.33;11.27;;;14.20;99.90;;;;;;5012287;28;20469;-61
2022/08/11 04:04:20;;;;;;;12.30;11.40;;;14.10;99.90;;;;;;5027798;28;20429;-60
2022/08/11 04:07:01;;;;;;;12.20;11.20;;;14.10;99.90;;;;;;5028789;28;20440;-58
2022/08/11 04:09:51;;;;;;;11.27;10.37;;;14.20;99.90;;;;;;5027247;28;20456;-60
2022/08/11 04:12:29;;;;;;;12.57;11.47;;;14.20;99.90;;;;;;5025813;28;20460;-61
2022/08/11 04:18:16;;;;;;;12.77;11.77;;;14.20;99.90;;;;;;5018437;28;20459;-60
2022/08/11 04:21:16;;;;;;;13.50;12.07;;;14.30;99.90;;;;;;5020152;28;20940;-60
2022/08/11 04:24:05;;;;;;;13.30;12.20;;;14.30;99.90;;;;;;5019681;28;20429;-60
2022/08/11 04:27:06;;;;;;;13.67;12.57;;;14.20;99.90;;;;;;5022561;28;20418;-61
2022/08/11 04:29:53;;;;;;;13.27;12.27;;;14.20;99.90;;;;;;5021347;28;20444;-60
2022/08/11 04:32:35;;;;;;;13.70;12.57;;;14.30;99.90;;;;;;5021772;28;20865;-61
2022/08/11 04:35:25;;;;;;;13.17;12.20;;;14.30;99.90;;;;;;5020194;28;20826;-59
2022/08/11 04:37:53;;;;;;;12.80;11.70;;;14.30;99.90;;;;;;5020840;28;20441;-61
2022/08/11 04:40:38;;;;;;;13.17;11.70;;;14.30;99.90;;;;;;5020914;28;20434;-60
2022/08/11 04:43:26;;;;;;;13.60;12.50;;;14.30;99.90;;;;;;5029433;28;20931;-61
2022/08/11 04:46:11;;;;;;;13.90;12.60;;;14.20;99.90;;;;;;5027485;28;20441;-56
2022/08/11 05:07:54;;;;;;;12.60;11.63;;;14.30;99.90;;;;;;5030864;28;20429;-59
2022/08/11 05:10:46;;;;;;;11.63;10.70;;;14.40;99.90;;;;;;5023603;28;20421;-60
2022/08/11 05:36:53;;;;;;;12.90;11.70;;;15.10;99.90;;;;;;5027857;28;20864;-59
2022/08/11 05:56:54;;;;;;;11.70;10.73;;;15.90;99.90;;;;;;5029850;28;21120;-59
2022/08/11 05:59:22;;;;;;;11.77;10.67;;;16.00;99.90;;;;;;5025253;28;20528;-60
2022/08/11 06:01:49;;;;;;;11.10;10.30;;;16.20;99.90;;;;;;5044448;28;20569;-59
2022/08/11 06:04:23;;;;;;;11.43;10.40;;;16.20;99.90;;;;;;5028832;28;20421;-59
2022/08/11 06:06:59;;;;;;;11.33;10.53;;;16.40;99.90;;;;;;5027005;28;20432;-58
2022/08/11 06:09:49;;;;;;;11.00;10.10;;;16.50;99.90;;;;;;5028425;28;20825;-59
2022/08/11 06:12:31;;;;;;;10.80;10.00;;;16.60;99.90;;;;;;5023156;28;20435;-58
2022/08/11 06:15:00;;;;;;;11.00;10.10;;;16.70;99.90;;;;;;5028459;28;20932;-56
2022/08/11 06:17:31;;;;;;;11.10;10.30;;;16.80;99.90;;;;;;5028900;28;20437;-53
2022/08/11 06:20:00;;;;;;;12.03;10.93;;;16.90;99.90;;;;;;5028192;28;20428;-60
2022/08/11 06:22:26;;;;;;;11.00;10.30;;;17.10;99.90;;;;;;5028875;28;20499;-54
2022/08/11 06:24:57;;;;;;;11.80;10.60;;;17.20;99.90;;;;;;5028211;28;20424;-60
2022/08/11 06:27:27;;;;;;;10.90;10.10;;;17.30;99.90;;;;;;5028861;28;20427;-59
2022/08/11 06:29:54;;;;;;;11.07;10.30;;;17.40;99.90;;;;;;5028705;28;20516;-60
2022/08/11 06:32:24;;;;;;;11.43;10.37;;;17.50;99.90;;;;;;5027755;28;20494;-60
2022/08/11 06:35:02;;;;;;;11.80;11.00;;;17.70;99.90;;;;;;5028694;28;20431;-59
2022/08/11 06:37:45;;;;;;;11.93;11.03;;;17.80;99.90;;;;;;5029189;28;20425;-60
2022/08/11 06:40:42;;;;;;;11.00;10.20;;;17.90;99.90;;;;;;5029194;28;20519;-60
2022/08/11 06:43:22;;;;;;;11.57;10.47;;;18.00;99.90;;;;;;5025748;28;20465;-61
2022/08/11 06:45:51;;;;;;;11.40;10.40;;;18.10;99.90;;;;;;5028974;28;20426;-60
2022/08/11 06:48:20;;;;;;;11.73;10.93;;;18.20;99.60;;;;;;5028207;28;20429;-60
2022/08/11 06:53:44;;;;;;;11.30;10.50;;;18.40;99.40;;;;;;5028053;28;20499;-60
2022/08/11 07:01:52;;;;;;;10.80;9.80;;;18.70;98.60;;;;;;5017507;28;20468;-54
2022/08/11 07:04:27;;;;;;;10.37;9.67;;;18.90;97.50;;;;;;5032295;28;20421;-60
2022/08/11 07:16:18;;;;;;;11.20;10.10;;;19.50;96.40;;;;;;5031663;28;20978;-62
2022/08/11 07:29:59;;;;;;;9.80;8.90;;;20.50;93.10;;;;;;5020015;28;20674;-61
2022/08/11 07:32:31;;;;;;;9.07;8.50;;;20.70;92.60;;;;;;5031529;28;20950;-60
2022/08/11 07:35:12;;;;;;;10.10;9.27;;;20.80;92.10;;;;;;5032081;28;20421;-59
2022/08/11 07:37:42;;;;;;;10.50;9.43;;;21.00;91.90;;;;;;5032066;28;21141;-61
2022/08/11 07:40:09;;;;;;;10.10;9.10;;;21.20;91.00;;;;;;5032225;28;20510;-59
2022/08/11 07:42:36;;;;;;;9.97;9.23;;;21.50;90.30;;;;;;5031842;28;20538;-60
2022/08/11 07:53:25;;;;;;;8.97;8.33;;;22.30;82.30;;;;;;5031231;28;20437;-60
2022/08/11 07:55:54;;;;;;;9.93;9.23;;;22.40;80.20;;;;;;5031171;28;20424;-60
2022/08/11 08:17:51;;;;;;;8.10;7.50;;;24.10;64.10;;;;;;5031301;28;20429;-60
2022/08/11 08:20:19;;;;;;;8.67;8.07;;;24.20;62.00;;;;;;5029954;28;20476;-60
2022/08/11 08:22:55;;;;;;;7.60;7.00;;;24.30;60.80;;;;;;5029933;28;20430;-60
2022/08/11 08:25:29;;;;;;;8.50;7.70;;;24.60;60.40;;;;;;5029864;28;20421;-61
2022/08/11 08:27:57;;;;;;;8.13;7.43;;;24.80;59.30;;;;;;5029867;28;20425;-61
2022/08/11 08:33:12;;;;;;;8.27;7.60;;;25.10;56.20;;;;;;5030531;28;20494;-61
2022/08/11 08:35:40;;;;;;;8.30;7.80;;;25.30;55.10;;;;;;5030588;28;20480;-61
2022/08/11 08:38:05;;;;;;;7.90;7.40;;;25.50;54.40;;;;;;5030418;28;20423;-61
2022/08/11 08:40:32;;;;;;;8.13;7.43;;;25.70;54.30;;;;;;5029354;28;20435;-61
2022/08/11 08:43:03;;;;;;;8.47;7.77;;;25.90;54.00;;;;;;5029583;28;20264;-60
2022/08/11 08:45:34;;;;;;;7.70;7.10;;;26.20;53.30;;;;;;5029002;28;20436;-61
2022/08/11 08:48:04;;;;;;;7.63;7.03;;;26.40;49.40;;;;;;5029870;28;20436;-61
2022/08/11 08:53:22;;;;;;;7.50;6.90;;;26.80;45.40;;;;;;5029431;28;20527;-61
2022/08/11 08:55:55;;;;;;;8.00;7.50;;;26.90;45.50;;;;;;5028792;28;20450;-62
2022/08/11 08:58:23;;;;;;;8.00;7.50;;;27.00;45.10;;;;;;5029022;28;20440;-61
2022/08/11 09:00:53;;;;;;;7.93;7.23;;;27.10;43.80;;;;;;5028848;28;20522;-62
2022/08/11 09:03:19;;;;;;;7.40;6.90;;;27.40;43.50;;;;;;5029543;28;20437;-61
2022/08/11 09:05:47;;;;;;;7.00;6.60;;;27.50;42.20;;;;;;5028123;28;20449;-61
2022/08/11 09:08:17;;;;;;;7.43;6.93;;;27.80;41.50;;;;;;5029794;28;20487;-62
2022/08/11 09:10:46;;;;;;;7.10;6.70;;;28.00;40.30;;;;;;5028870;28;20449;-60
2022/08/11 09:13:13;;;;;;;7.57;7.07;;;28.20;38.70;;;;;;5020568;28;20457;-58
2022/08/11 09:15:39;;;;;;;7.20;6.70;;;28.50;38.40;;;;;;5010138;28;20408;-60
2022/08/11 09:18:08;;;;;;;6.80;6.20;;;28.80;36.50;;;;;;5010689;28;20438;-61
2022/08/11 09:20:36;;;;;;;7.60;7.00;;;28.90;35.80;;;;;;5010099;28;20450;-60
2022/08/11 09:28:44;;;;;;;6.40;6.10;;;29.40;33.60;;;;;;5010386;28;20404;-62
2022/08/11 09:31:11;;;;;;;8.03;7.17;;;29.60;33.40;;;;;;5025930;28;20515;-60
2022/08/11 09:33:38;;;;;;;7.40;7.00;;;29.70;32.30;;;;;;5029387;28;20473;-60
2022/08/11 09:40:27;;;;;;;6.80;6.40;;;29.70;32.20;;;;;;5028726;28;20444;-61
2022/08/11 09:41:38;;;;;;;6.10;5.70;;;29.90;31.50;;;;;;5029519;28;20864;-61
2022/08/11 09:46:51;;;;;;;7.30;6.70;;;30.10;30.30;;;;;;5016362;28;20419;-60
2022/08/11 09:49:20;;;;;;;7.43;7.03;;;30.10;30.60;;;;;;5029843;28;20742;-61
2022/08/11 09:51:48;;;;;;;7.40;7.00;;;30.00;30.80;;;;;;5029381;28;20516;-60
2022/08/11 09:54:15;;;;;;;6.70;6.20;;;30.00;30.80;;;;;;5029357;28;20428;-61
2022/08/11 09:59:25;;;;;;;6.77;6.37;;;29.90;30.80;;;;;;5023323;28;20432;-61
2022/08/11 10:01:58;;;;;;;7.00;6.50;;;29.80;30.40;;;;;;5027131;28;20473;-61
2022/08/11 10:04:35;;;;;;;7.73;7.23;;;29.50;30.90;;;;;;5028987;28;20187;-61
2022/08/11 10:07:09;;;;;;;7.20;6.60;;;29.50;30.60;;;;;;5023678;28;20440;-61
2022/08/11 10:09:37;;;;;;;7.23;6.73;;;29.40;30.30;;;;;;5017974;28;20441;-61
2022/08/11 10:12:07;;;;;;;6.70;6.40;;;29.30;30.50;;;;;;5028670;28;20441;-62
2022/08/11 10:17:20;;;;;;;7.40;6.70;;;29.60;29.60;;;;;;5028430;28;20474;-62
2022/08/11 10:19:50;;;;;;;7.03;6.43;;;29.60;29.40;;;;;;5028078;28;20494;-62
2022/08/11 10:27:57;;;;;;;6.10;5.57;;;30.00;29.40;;;;;;5028222;28;20429;-62
2022/08/11 10:35:58;;;;;;;5.93;5.63;;;30.40;27.50;;;;;;5028069;28;20514;-60
2022/08/11 10:38:25;;;;;;;6.30;5.90;;;30.60;26.80;;;;;;5032193;28;20446;-61
2022/08/11 10:43:01;;;;;;;6.30;6.00;;;30.80;27.00;;;;;;5032041;28;20469;-61
2022/08/11 10:43:40;;;;;;;5.67;5.37;;;31.10;26.50;;;;;;5032974;28;20432;-61
2022/08/11 10:48:55;;;;;;;6.03;5.70;;;31.50;25.30;;;;;;5033120;28;20487;-61
2022/08/11 10:59:38;;;;;;;5.80;5.50;;;31.60;24.20;;;;;;5032889;28;20476;-62
2022/08/11 11:02:04;;;;;;;5.97;5.50;;;31.80;24.50;;;;;;5032559;28;20468;-62
2022/08/11 11:04:37;;;;;;;5.80;5.30;;;31.80;23.10;;;;;;5017325;28;20947;-62
2022/08/11 11:07:13;;;;;;;5.60;5.30;;;31.70;22.50;;;;;;5027902;28;20879;-62
2022/08/11 11:09:52;;;;;;;5.70;5.50;;;31.50;22.90;;;;;;5014880;28;20429;-62
2022/08/11 11:18:20;;;;;;;4.90;4.70;;;31.30;22.50;;;;;;5012779;28;20457;-61
2022/08/11 11:20:52;;;;;;;6.10;5.80;;;31.60;22.70;;;;;;5012739;28;20457;-61
2022/08/11 11:23:25;;;;;;;6.10;5.80;;;32.00;22.60;;;;;;5012617;28;20426;-61
2022/08/11 11:26:08;;;;;;;5.40;5.10;;;32.20;20.80;;;;;;5012798;28;20725;-61
2022/08/11 11:29:11;;;;;;;5.70;5.30;;;32.20;62.40;;;;;;5012500;28;20450;-61
2022/08/11 11:32:02;;;;;;;5.73;5.53;;;32.30;59.00;;;;;;5012307;28;20467;-60
2022/08/11 11:34:50;;;;;;;5.87;5.60;;;32.60;59.80;;;;;;5012587;28;20419;-61
2022/08/11 11:37:17;;;;;;;5.37;4.93;;;32.60;58.30;;;;;;5029126;28;20553;-61
2022/08/11 11:39:44;;;;;;;5.53;5.23;;;32.70;54.70;;;;;;5032145;28;20540;-61
2022/08/11 11:42:10;;;;;;;4.87;4.57;;;32.80;54.70;;;;;;5032031;28;20876;-61
2022/08/11 11:44:43;;;;;;;5.70;5.20;;;33.00;53.50;;;;;;5017331;28;20413;-61
2022/08/11 11:47:11;;;;;;;5.50;5.00;;;33.00;50.70;;;;;;5012295;28;20406;-61
2022/08/11 11:49:39;;;;;;;5.80;5.50;;;33.10;49.60;;;;;;5018626;28;20434;-62
2022/08/11 11:52:07;;;;;;;5.30;5.10;;;33.30;48.50;;;;;;5031964;28;20421;-62
2022/08/11 11:54:35;;;;;;;5.90;5.50;;;33.30;48.00;;;;;;5032083;28;20406;-62
2022/08/11 12:01:14;;;;;;;5.60;5.20;;;33.50;48.70;;;;;;5032080;28;20449;-62
2022/08/11 12:02:35;;;;;;;5.30;5.10;;;33.50;46.60;;;;;;5031494;28;20481;-62
2022/08/11 12:05:01;;;;;;;5.70;5.40;;;33.70;45.00;;;;;;5031055;28;20422;-62
2022/08/11 12:10:14;;;;;;;5.37;5.07;;;34.00;45.30;;;;;;5013585;28;20441;-62
2022/08/11 12:15:24;;;;;;;5.80;5.43;;;34.20;43.20;;;;;;5014366;28;20448;-61
2022/08/11 12:17:50;;;;;;;5.67;5.33;;;34.40;42.60;;;;;;5031549;28;20409;-62
2022/08/11 12:20:20;;;;;;;5.23;5.03;;;34.50;42.20;;;;;;5031347;28;20183;-59
2022/08/11 12:28:16;;;;;;;5.20;5.00;;;35.50;37.70;;;;;;5030988;28;20404;-61
2022/08/11 12:30:46;;;;;;;5.93;5.30;;;35.50;36.70;;;;;;5031222;28;21150;-62
2022/08/11 12:33:12;;;;;;;5.30;5.10;;;35.20;37.10;;;;;;5030462;28;20849;-62
2022/08/11 12:35:39;;;;;;;5.43;5.03;;;35.20;36.40;;;;;;5030711;28;20481;-61
2022/08/11 12:38:06;;;;;;;4.90;4.50;;;35.40;36.80;;;;;;5030455;28;20527;-63
2022/08/11 12:46:07;;;;;;;4.53;4.33;;;36.10;33.80;;;;;;5031100;28;20401;-62
2022/08/11 12:54:42;;;;;;;5.73;5.43;;;36.50;31.50;;;;;;5031106;28;20464;-62
2022/08/11 13:05:33;;;;;;;4.87;4.67;;;36.80;28.00;;;;;;5029415;28;20492;-62
2022/08/11 13:08:02;;;;;;;5.57;5.27;;;37.00;27.30;;;;;;5030399;28;20444;-61
2022/08/11 13:13:18;;;;;;;5.80;5.50;;;37.40;27.40;;;;;;5029944;28;20472;-62
2022/08/11 13:15:46;;;;;;;5.70;5.40;;;37.80;26.50;;;;;;5029329;28;20425;-62
2022/08/11 13:18:16;;;;;;;5.80;5.50;;;37.70;25.70;;;;;;5030058;28;20507;-62
2022/08/11 15:37:36;;;;;;;6.67;6.27;;;38.00;8.80;;;;;;5030589;28;20521;-58
2022/08/11 15:46:32;;;;;;;5.97;5.67;;;37.70;9.30;;;;;;5030586;28;21314;-58
2022/08/11 15:49:11;;;;;;;6.83;6.43;;;37.90;8.30;;;;;;5027620;28;20475;-57
2022/08/11 15:51:45;;;;;;;6.20;5.90;;;37.70;9.00;;;;;;5030894;28;20519;-57
2022/08/11 15:54:16;;;;;;;6.60;6.30;;;37.30;8.70;;;;;;5030589;28;20425;-57
2022/08/11 15:56:45;;;;;;;6.60;6.30;;;37.30;9.40;;;;;;5001361;28;20454;-56
2022/08/11 16:04:46;;;;;;;6.37;6.07;;;37.00;9.00;;;;;;5029618;28;20456;-56
2022/08/11 16:07:14;;;;;;;6.30;6.00;;;37.10;9.10;;;;;;5030660;28;20421;-56
2022/08/11 16:09:54;;;;;;;6.23;5.83;;;37.00;19.80;;;;;;5032107;28;20437;-55
2022/08/11 16:12:23;;;;;;;6.73;6.30;;;37.00;9.00;;;;;;5031886;28;20464;-56
2022/08/11 16:17:43;;;;;;;7.07;6.67;;;36.80;8.90;;;;;;5036649;28;20436;-52
2022/08/11 16:20:10;;;;;;;7.30;6.80;;;36.60;8.80;;;;;;5029716;28;20500;-56
2022/08/11 16:22:42;;;;;;;6.77;6.37;;;36.50;8.90;;;;;;5022275;28;20449;-56
2022/08/11 16:25:11;;;;;;;6.63;6.33;;;36.40;9.70;;;;;;5019210;28;20477;-53
2022/08/11 16:27:43;;;;;;;6.67;6.37;;;36.40;9.40;;;;;;5019677;28;20923;-55
2022/08/11 16:30:10;;;;;;;7.30;6.70;;;36.30;9.20;;;;;;5012474;28;20457;-56
2022/08/11 16:32:40;;;;;;;6.90;6.50;;;36.20;9.80;;;;;;5035833;28;20586;-54
2022/08/11 16:40:42;;;;;;;7.00;6.70;;;35.90;10.60;;;;;;5035354;28;20482;-55
2022/08/11 16:49:12;;;;;;;6.17;5.60;;;35.60;10.60;;;;;;5013730;28;20433;-54
2022/08/11 16:51:38;;;;;;;7.03;6.43;;;35.20;10.60;;;;;;5037459;28;20465;-56
2022/08/11 16:54:04;;;;;;;6.33;5.97;;;35.10;11.30;;;;;;5039785;28;20417;-54
2022/08/11 16:56:44;;;;;;;6.57;6.17;;;35.00;10.70;;;;;;5035761;28;20679;-52
2022/08/11 16:59:17;;;;;;;6.30;6.00;;;34.80;11.30;;;;;;5028084;28;20181;-56
2022/08/11 17:01:48;;;;;;;6.60;6.10;;;34.60;11.10;;;;;;5033473;28;20450;-54
2022/08/11 17:13:08;;;;;;;6.40;5.93;;;34.10;12.30;;;;;;5029590;28;20436;-58
2022/08/11 17:18:42;;;;;;;7.40;7.00;;;33.20;13.30;;;;;;5024982;28;20569;-53
2022/08/11 17:23:45;;;;;;;6.43;6.13;;;33.00;13.50;;;;;;5030902;28;20507;-54
2022/08/11 17:24:26;;;;;;;5.90;5.60;;;32.80;14.30;;;;;;5016895;28;20460;-55
2022/08/11 17:26:57;;;;;;;6.90;6.50;;;32.50;14.60;;;;;;5047610;28;20506;-53
2022/08/11 17:29:50;;;;;;;6.57;6.07;;;32.20;13.60;;;;;;5049452;28;20512;-55
2022/08/11 17:35:30;;;;;;;6.33;5.93;;;31.20;15.50;;;;;;5046737;28;20412;-54
2022/08/11 17:37:59;;;;;;;6.70;6.30;;;30.80;16.60;;;;;;5047478;28;20440;-51
2022/08/11 17:40:25;;;;;;;6.57;6.27;;;30.50;16.70;;;;;;5049016;28;20419;-55
2022/08/11 17:48:32;;;;;;;5.77;5.47;;;29.50;18.40;;;;;;5042651;28;20498;-52
2022/08/11 17:51:10;;;;;;;6.30;6.00;;;29.20;18.70;;;;;;5048921;28;20464;-56
2022/08/11 18:03:28;;;;;;;6.53;6.07;;;27.80;22.00;;;;;;5048799;28;20947;-53
2022/08/11 18:04:49;;;;;;;6.00;5.70;;;27.60;21.80;;;;;;5037358;28;20423;-54
